createdAt,value
2023-03-06T00:00:56.189Z,14.43
2023-03-06T00:03:27.879Z,12.50
2023-03-06T00:05:57.692Z,13.02
2023-03-06T00:08:29.398Z,12.88
2023-03-06T00:10:58.077Z,12.38
2023-03-06T00:13:30.054Z,12.63
2023-03-06T00:16:00.566Z,13.65
2023-03-06T00:18:28.630Z,12.45
2023-03-06T00:21:00.889Z,12.35
2023-03-06T00:23:30.391Z,12.25
2023-03-06T00:25:58.274Z,13.93
2023-03-06T00:28:26.276Z,13.70
2023-03-06T00:30:54.199Z,15.00
2023-03-06T00:33:22.161Z,13.45
2023-03-06T00:35:50.092Z,14.82
2023-03-06T00:38:18.112Z,13.50
2023-03-06T00:40:47.381Z,15.57
2023-03-06T00:43:16.974Z,15.65
2023-03-06T00:45:46.290Z,16.70
2023-03-06T00:48:14.294Z,15.93
2023-03-06T00:50:42.215Z,16.77
2023-03-06T00:53:11.181Z,16.10
2023-03-06T00:55:39.079Z,17.38
2023-03-06T00:58:08.392Z,17.05
2023-03-06T01:00:36.374Z,16.27
2023-03-06T01:03:04.328Z,15.55
2023-03-06T01:05:35.473Z,16.30
2023-03-06T01:08:03.423Z,15.63
2023-03-06T01:10:31.387Z,16.13
2023-03-06T01:12:59.480Z,17.05
2023-03-06T01:15:28.811Z,15.80
2023-03-06T01:17:56.837Z,16.85
2023-03-06T01:20:26.749Z,16.73
2023-03-06T01:22:55.587Z,15.20
2023-03-06T01:25:24.270Z,15.88
2023-03-06T01:27:53.590Z,17.50
2023-03-06T01:30:22.099Z,18.40
2023-03-06T01:32:51.458Z,17.25
2023-03-06T01:35:19.760Z,16.98
2023-03-06T01:37:47.883Z,16.20
2023-03-06T01:40:15.843Z,17.58
2023-03-06T01:42:45.815Z,17.13
2023-03-06T01:45:51.897Z,17.48
2023-03-06T01:48:24.410Z,17.13
2023-03-06T01:50:54.484Z,16.88
2023-03-06T01:53:22.556Z,18.33
2023-03-06T01:55:50.669Z,16.33
2023-03-06T01:58:20.571Z,16.98
2023-03-06T02:00:48.643Z,17.70
2023-03-06T02:03:21.606Z,16.70
2023-03-06T02:05:51.010Z,16.97
2023-03-06T02:08:21.295Z,16.88
2023-03-06T02:10:59.018Z,20.45
2023-03-06T02:13:27.031Z,17.25
2023-03-06T02:15:55.077Z,17.63
2023-03-06T02:18:23.100Z,19.10
2023-03-06T02:20:55.198Z,17.42
2023-03-06T02:23:31.562Z,17.40
2023-03-06T02:26:03.137Z,17.52
2023-03-06T02:28:31.133Z,18.05
2023-03-06T02:30:59.102Z,17.55
2023-03-06T02:33:29.624Z,18.35
2023-03-06T02:36:00.345Z,18.13
2023-03-06T02:38:31.100Z,18.08
2023-03-06T02:41:02.673Z,16.92
2023-03-06T02:43:35.353Z,18.23
2023-03-06T02:46:03.741Z,16.95
2023-03-06T02:48:31.675Z,15.13
2023-03-06T02:50:59.615Z,16.80
2023-03-06T02:53:27.665Z,15.20
2023-03-06T02:55:55.610Z,16.52
2023-03-06T02:58:24.890Z,15.35
2023-03-06T03:00:52.782Z,16.25
2023-03-06T03:03:20.799Z,16.88
2023-03-06T03:05:48.704Z,16.92
2023-03-06T03:08:16.796Z,14.38
2023-03-06T03:10:44.783Z,15.65
2023-03-06T03:13:12.724Z,16.60
2023-03-06T03:15:42.348Z,15.65
2023-03-06T03:18:11.894Z,17.00
2023-03-06T03:20:43.872Z,15.75
2023-03-06T03:23:11.815Z,15.55
2023-03-06T03:25:39.785Z,16.80
2023-03-06T03:28:07.831Z,15.32
2023-03-06T03:30:35.835Z,18.10
2023-03-06T03:33:05.215Z,16.95
2023-03-06T03:35:33.234Z,17.73
2023-03-06T03:38:01.339Z,18.17
2023-03-06T03:40:29.360Z,19.08
2023-03-06T03:42:57.290Z,18.85
2023-03-06T03:45:25.741Z,21.15
2023-03-06T03:47:53.656Z,21.23
2023-03-06T03:50:23.086Z,21.90
2023-03-06T03:52:51.057Z,20.83
2023-03-06T03:55:19.101Z,20.23
2023-03-06T03:57:46.996Z,24.63
2023-03-06T04:00:16.775Z,27.23
2023-03-06T04:02:45.392Z,26.70
2023-03-06T04:05:15.026Z,25.23
2023-03-06T04:07:44.825Z,25.67
2023-03-06T04:10:13.564Z,27.55
2023-03-06T04:12:41.532Z,27.75
2023-03-06T04:15:10.247Z,28.38
2023-03-06T04:17:38.238Z,27.42
2023-03-06T04:20:07.006Z,29.88
2023-03-06T04:22:34.908Z,26.42
2023-03-06T04:25:04.347Z,29.77
2023-03-06T04:27:32.328Z,29.08
2023-03-06T04:30:00.307Z,26.70
2023-03-06T04:32:28.381Z,28.40
2023-03-06T04:34:56.483Z,27.48
2023-03-06T04:37:26.563Z,27.88
2023-03-06T04:39:54.876Z,30.23
2023-03-06T04:42:24.229Z,30.73
2023-03-06T04:44:52.202Z,29.50
2023-03-06T04:47:20.427Z,32.15
2023-03-06T04:49:48.524Z,24.90
2023-03-06T04:52:16.462Z,21.25
2023-03-06T04:54:46.084Z,18.35
2023-03-06T04:57:14.339Z,18.13
2023-03-06T04:59:43.647Z,20.52
2023-03-06T05:02:11.603Z,19.80
2023-03-06T05:04:39.540Z,23.70
2023-03-06T05:07:07.517Z,24.98
2023-03-06T05:09:37.165Z,24.45
2023-03-06T05:12:06.595Z,22.83
2023-03-06T05:14:34.817Z,22.13
2023-03-06T05:17:04.136Z,22.58
2023-03-06T05:19:32.465Z,20.67
2023-03-06T05:22:00.431Z,21.38
2023-03-06T05:24:28.507Z,22.33
2023-03-06T05:26:56.456Z,30.55
2023-03-06T05:29:24.374Z,30.25
2023-03-06T05:31:52.343Z,33.38
2023-03-06T05:34:21.711Z,31.67
2023-03-06T05:36:49.613Z,29.70
2023-03-06T05:39:17.895Z,32.38
2023-03-06T05:41:45.888Z,32.50
2023-03-06T05:44:13.836Z,28.50
2023-03-06T05:46:41.763Z,32.55
2023-03-06T05:49:09.687Z,32.40
2023-03-06T05:51:38.980Z,31.63
2023-03-06T05:54:06.927Z,32.78
2023-03-06T05:56:34.886Z,34.20
2023-03-06T05:59:02.785Z,31.17
2023-03-06T06:01:30.683Z,31.63
2023-03-06T06:03:58.620Z,29.88
2023-03-06T06:06:26.866Z,30.10
2023-03-06T06:08:56.216Z,30.50
2023-03-06T06:11:24.138Z,26.67
2023-03-06T06:13:52.318Z,25.33
2023-03-06T06:16:26.400Z,25.35
2023-03-06T06:18:54.327Z,24.50
2023-03-06T06:21:22.229Z,21.77
2023-03-06T06:23:50.148Z,22.33
2023-03-06T06:26:47.934Z,22.83
2023-03-06T06:29:15.906Z,22.05
2023-03-06T06:31:43.905Z,20.58
2023-03-06T06:34:15.235Z,20.48
2023-03-06T06:36:43.450Z,19.85
2023-03-06T06:39:14.791Z,21.95
2023-03-06T06:41:57.250Z,19.33
2023-03-06T06:44:29.030Z,17.88
2023-03-06T06:47:21.859Z,21.75
2023-03-06T06:49:46.547Z,20.80
2023-03-06T06:52:14.481Z,19.70
2023-03-06T06:54:42.368Z,19.67
2023-03-06T06:57:11.711Z,20.08
2023-03-06T06:59:41.066Z,19.08
2023-03-06T07:02:09.206Z,17.20
2023-03-06T07:04:37.102Z,18.92
2023-03-06T07:07:05.008Z,20.88
2023-03-06T07:09:32.964Z,19.85
2023-03-06T07:12:01.122Z,19.45
2023-03-06T07:14:29.016Z,21.15
2023-03-06T07:16:58.567Z,18.60
2023-03-06T07:19:27.237Z,20.45
2023-03-06T07:21:55.273Z,19.52
2023-03-06T07:24:23.159Z,21.35
2023-03-06T07:26:51.060Z,18.20
2023-03-06T07:29:19.513Z,18.38
2023-03-06T07:31:47.450Z,21.48
2023-03-06T07:34:16.884Z,21.85
2023-03-06T07:36:44.823Z,19.63
2023-03-06T07:39:12.724Z,20.70
2023-03-06T07:41:40.672Z,22.83
2023-03-06T07:44:08.555Z,19.65
2023-03-06T07:46:36.926Z,20.75
2023-03-06T07:49:04.883Z,21.10
2023-03-06T07:51:34.241Z,22.90
2023-03-06T07:54:02.152Z,20.40
2023-03-06T07:56:30.092Z,22.67
2023-03-06T07:58:58.086Z,19.30
2023-03-06T08:01:26.091Z,20.27
2023-03-06T08:03:54.679Z,17.67
2023-03-06T08:06:24.728Z,21.60
2023-03-06T08:08:56.617Z,21.88
2023-03-06T08:11:26.330Z,20.48
2023-03-06T08:13:55.015Z,20.85
2023-03-06T08:16:24.908Z,19.90
2023-03-06T08:18:53.004Z,20.05
2023-03-06T08:21:24.712Z,19.65
2023-03-06T08:23:54.470Z,21.00
2023-03-06T08:26:23.896Z,20.67
2023-03-06T08:28:52.931Z,18.90
2023-03-06T08:31:26.808Z,20.73
2023-03-06T08:36:24.020Z,21.10
2023-03-06T08:38:54.035Z,21.15
2023-03-06T08:41:22.508Z,22.85
2023-03-06T08:43:50.946Z,22.35
2023-03-06T08:46:19.881Z,20.80
2023-03-06T08:48:48.457Z,19.90
2023-03-06T08:51:17.339Z,21.90
2023-03-06T08:53:45.967Z,21.33
2023-03-06T08:56:20.075Z,17.33
2023-03-06T08:58:48.452Z,18.73
2023-03-06T09:01:18.480Z,21.10
2023-03-06T09:03:46.800Z,19.83
2023-03-06T09:06:15.166Z,20.33
2023-03-06T09:08:44.627Z,21.40
2023-03-06T09:11:13.583Z,19.58
2023-03-06T09:13:43.478Z,19.67
2023-03-06T09:16:12.693Z,19.88
2023-03-06T09:18:40.702Z,19.63
2023-03-06T09:21:09.197Z,20.45
2023-03-06T09:23:39.561Z,19.48
2023-03-06T09:26:08.338Z,16.85
2023-03-06T09:28:39.102Z,19.15
2023-03-06T09:31:10.845Z,18.83
2023-03-06T09:33:39.406Z,19.38
2023-03-06T09:36:09.306Z,16.48
2023-03-06T09:38:37.318Z,17.42
2023-03-06T09:43:39.354Z,15.18
2023-03-06T09:46:20.534Z,18.25
2023-03-06T09:49:01.608Z,18.77
2023-03-06T09:51:39.271Z,18.80
2023-03-06T09:54:13.696Z,22.75
2023-03-06T09:56:47.311Z,17.83
2023-03-06T09:59:21.146Z,18.35
2023-03-06T10:01:59.946Z,18.55
2023-03-06T10:04:40.262Z,17.83
2023-03-06T10:07:15.907Z,18.70
2023-03-06T10:09:49.438Z,17.02
2023-03-06T10:12:26.107Z,20.02
2023-03-06T10:15:08.102Z,17.92
2023-03-06T10:17:43.178Z,19.33
2023-03-06T10:20:20.229Z,18.83
2023-03-06T10:23:11.194Z,18.73
2023-03-06T10:25:49.388Z,18.83
2023-03-06T10:28:22.210Z,18.25
2023-03-06T10:30:58.080Z,19.83
2023-03-06T10:33:38.853Z,19.40
2023-03-06T10:36:07.506Z,17.10
2023-03-06T10:38:37.834Z,18.05
2023-03-06T10:41:09.770Z,17.05
2023-03-06T10:43:39.964Z,16.85
2023-03-06T10:46:09.111Z,17.02
2023-03-06T10:48:42.008Z,16.30
2023-03-06T10:51:19.185Z,17.35
2023-03-06T10:53:52.930Z,17.52
2023-03-06T10:56:33.079Z,15.30
2023-03-06T10:59:09.533Z,14.23
2023-03-06T11:01:37.633Z,14.90
2023-03-06T11:04:27.624Z,14.80
2023-03-06T11:07:14.177Z,14.25
2023-03-06T11:09:43.754Z,67.55
2023-03-06T11:12:26.517Z,13.43
2023-03-06T11:15:18.369Z,12.20
2023-03-06T11:17:52.961Z,13.60
2023-03-06T11:20:25.023Z,17.25
2023-03-06T11:22:56.936Z,12.63
2023-03-06T11:25:29.260Z,14.10
2023-03-06T11:28:01.532Z,12.82
2023-03-06T11:30:36.016Z,15.40
2023-03-06T11:33:12.620Z,13.98
2023-03-06T11:35:50.736Z,11.27
2023-03-06T11:38:23.551Z,10.25
2023-03-06T11:40:55.069Z,13.32
2023-03-06T11:43:29.202Z,13.90
2023-03-06T11:46:02.793Z,13.55
2023-03-06T11:48:36.534Z,14.38
2023-03-06T11:51:12.668Z,12.35
2023-03-06T11:53:41.862Z,13.05
2023-03-06T11:56:29.962Z,11.52
2023-03-06T11:59:22.246Z,8.50
2023-03-06T12:02:01.266Z,10.20
2023-03-06T12:04:49.611Z,11.95
2023-03-06T12:07:26.558Z,12.68
2023-03-06T12:09:58.727Z,10.23
2023-03-06T12:12:54.450Z,11.15
2023-03-06T12:15:43.860Z,11.23
2023-03-06T12:18:32.388Z,9.77
2023-03-06T12:21:08.271Z,10.80
2023-03-06T12:24:00.166Z,10.68
2023-03-06T12:26:55.068Z,11.48
2023-03-06T12:29:41.584Z,9.68
2023-03-06T12:32:17.778Z,10.73
2023-03-06T12:35:08.852Z,9.90
2023-03-06T12:37:49.455Z,7.80
2023-03-06T12:40:43.914Z,9.45
2023-03-06T12:45:52.388Z,8.27
2023-03-06T12:48:23.728Z,7.45
2023-03-06T12:50:52.324Z,9.77
2023-03-06T12:53:28.106Z,7.43
2023-03-06T12:55:59.409Z,9.15
2023-03-06T12:58:47.590Z,7.72
2023-03-06T13:01:24.116Z,8.27
2023-03-06T13:04:06.644Z,8.30
2023-03-06T13:06:51.342Z,9.18
2023-03-06T13:09:26.594Z,10.18
2023-03-06T13:14:55.211Z,9.30
2023-03-06T13:20:35.174Z,9.10
2023-03-06T13:23:42.713Z,8.43
2023-03-06T13:26:12.993Z,8.38
2023-03-06T13:28:46.511Z,9.45
2023-03-06T13:31:26.486Z,9.40
2023-03-06T13:33:58.814Z,8.38
2023-03-06T14:05:46.219Z,9.18
2023-03-06T14:08:17.542Z,8.77
2023-03-06T14:10:47.834Z,8.75
2023-03-06T14:13:18.472Z,8.88
2023-03-06T14:15:48.487Z,9.95
2023-03-06T14:18:25.035Z,8.32
2023-03-06T14:20:58.311Z,9.82
2023-03-06T14:23:30.165Z,9.52
2023-03-06T14:26:15.199Z,9.02
2023-03-06T14:28:44.912Z,10.20
2023-03-06T14:31:20.314Z,8.88
2023-03-06T14:33:52.819Z,8.80
2023-03-06T14:36:29.723Z,10.02
2023-03-06T14:39:01.104Z,9.75
2023-03-06T14:41:31.994Z,10.35
2023-03-06T14:44:10.779Z,10.90
2023-03-06T14:46:39.140Z,11.48
2023-03-06T14:49:11.926Z,12.18
2023-03-06T14:51:46.803Z,12.10
2023-03-06T14:54:20.809Z,14.75
2023-03-06T14:56:53.767Z,9.73
2023-03-06T14:59:29.379Z,10.00
2023-03-06T15:02:00.435Z,9.00
2023-03-06T15:04:33.008Z,10.18
2023-03-06T15:07:09.783Z,10.88
2023-03-06T15:09:41.947Z,8.45
2023-03-06T15:12:35.853Z,8.98
2023-03-06T15:15:27.305Z,9.52
2023-03-06T15:17:56.441Z,9.73
2023-03-06T15:20:43.084Z,8.93
2023-03-06T15:23:23.041Z,10.48
2023-03-06T15:25:58.439Z,10.85
2023-03-06T15:28:32.584Z,10.48
2023-03-06T15:31:17.611Z,9.68
2023-03-06T15:33:46.388Z,9.27
2023-03-06T15:36:27.608Z,9.70
2023-03-06T15:38:58.505Z,10.50
2023-03-06T15:41:36.845Z,9.90
2023-03-06T15:44:12.495Z,10.32
2023-03-06T15:46:40.571Z,9.27
2023-03-06T15:49:15.705Z,10.80
2023-03-06T15:51:43.751Z,9.88
2023-03-06T15:54:13.177Z,10.43
2023-03-06T15:56:43.493Z,9.68
2023-03-06T15:59:17.011Z,10.48
2023-03-06T16:01:44.966Z,10.70
2023-03-06T16:04:14.018Z,10.85
2023-03-06T16:06:42.045Z,9.70
2023-03-06T16:09:10.693Z,10.60
2023-03-06T16:11:44.328Z,8.30
2023-03-06T16:14:21.460Z,11.10
2023-03-06T16:16:49.778Z,10.77
2023-03-06T16:19:26.002Z,10.60
2023-03-06T16:21:55.317Z,10.30
2023-03-06T16:24:23.285Z,9.50
2023-03-06T16:26:54.969Z,10.80
2023-03-06T16:29:24.709Z,9.63
2023-03-06T16:31:52.942Z,10.63
2023-03-06T16:34:20.852Z,11.10
2023-03-06T16:36:49.744Z,10.70
2023-03-06T16:39:19.680Z,9.77
2023-03-06T16:41:47.610Z,10.63
2023-03-06T16:44:16.954Z,10.65
2023-03-06T16:46:47.111Z,11.30
2023-03-06T16:49:17.714Z,10.82
2023-03-06T16:51:45.822Z,10.38
2023-03-06T16:54:13.997Z,10.57
2023-03-06T16:56:42.403Z,11.00
2023-03-06T16:59:10.748Z,9.88
2023-03-06T17:01:42.700Z,10.57
2023-03-06T17:04:11.514Z,11.20
2023-03-06T17:06:40.031Z,10.63
2023-03-06T17:09:08.518Z,10.73
2023-03-06T17:11:38.706Z,10.57
2023-03-06T17:14:07.179Z,11.02
2023-03-06T17:16:37.063Z,9.32
2023-03-06T17:22:04.878Z,11.63
2023-03-06T17:24:32.930Z,11.13
2023-03-06T17:27:00.950Z,12.25
2023-03-06T17:29:28.963Z,11.77
2023-03-06T17:31:56.932Z,11.02
2023-03-06T17:34:26.284Z,10.60
2023-03-06T17:36:54.212Z,11.40
2023-03-06T17:39:22.178Z,11.27
2023-03-06T17:41:50.238Z,10.65
2023-03-06T17:44:19.775Z,9.73
2023-03-06T17:46:47.756Z,11.63
2023-03-06T17:49:16.465Z,10.48
2023-03-06T17:51:45.861Z,13.13
2023-03-06T17:54:13.733Z,16.88
2023-03-06T17:56:41.610Z,11.88
2023-03-06T17:59:09.656Z,12.23
2023-03-06T18:01:37.858Z,12.23
2023-03-06T18:04:06.212Z,11.25
2023-03-06T18:06:34.903Z,11.88
2023-03-06T18:09:05.295Z,12.23
2023-03-06T18:11:33.735Z,12.00
2023-03-06T18:14:03.206Z,12.30
2023-03-06T18:16:32.460Z,12.05
2023-03-06T18:19:00.489Z,11.68
2023-03-06T18:21:28.447Z,10.80
2023-03-06T18:23:58.800Z,11.30
2023-03-06T18:26:29.525Z,11.25
2023-03-06T18:28:59.117Z,11.80
2023-03-06T18:31:29.510Z,12.77
2023-03-06T18:33:59.646Z,11.60
2023-03-06T18:36:29.648Z,12.25
2023-03-06T18:38:58.459Z,12.68
2023-03-06T18:41:27.989Z,11.88
2023-03-06T18:43:57.722Z,11.70
2023-03-06T18:46:27.413Z,11.05
2023-03-06T18:48:56.508Z,11.38
2023-03-06T18:51:24.702Z,11.50
2023-03-06T18:53:52.697Z,11.55
2023-03-06T18:59:23.914Z,12.15
2023-03-06T19:01:57.941Z,12.75
2023-03-06T19:06:54.649Z,11.43
2023-03-06T19:09:23.000Z,11.50
2023-03-06T19:11:54.723Z,12.05
2023-03-06T19:14:22.821Z,12.68
2023-03-06T19:16:51.017Z,12.90
2023-03-06T19:19:26.532Z,11.68
2023-03-06T19:21:54.991Z,12.40
2023-03-06T19:24:22.881Z,12.63
2023-03-06T19:26:52.352Z,12.15
2023-03-06T19:29:20.293Z,13.75
2023-03-06T19:31:49.009Z,12.73
2023-03-06T19:34:16.881Z,12.77
2023-03-06T19:36:44.752Z,10.80
2023-03-06T19:39:13.053Z,11.50
2023-03-06T19:41:40.918Z,11.45
2023-03-06T19:44:12.321Z,12.38
2023-03-06T19:46:40.801Z,11.88
2023-03-06T19:49:12.203Z,11.20
2023-03-06T19:51:40.137Z,10.50
2023-03-06T19:54:08.061Z,12.52
2023-03-06T19:56:35.942Z,11.07
2023-03-06T19:59:03.878Z,12.45
2023-03-06T20:01:34.329Z,12.35
2023-03-06T20:04:03.371Z,12.70
2023-03-06T20:06:34.309Z,13.15
2023-03-06T20:09:03.224Z,12.57
2023-03-06T20:11:31.986Z,12.30
2023-03-06T20:14:01.370Z,12.27
2023-03-06T20:16:30.481Z,10.88
2023-03-06T20:19:00.751Z,12.00
2023-03-06T20:21:30.029Z,14.00
2023-03-06T20:23:58.831Z,12.13
2023-03-06T20:26:27.793Z,11.02
2023-03-06T20:28:56.112Z,12.50
2023-03-06T20:31:25.816Z,12.20
2023-03-06T20:33:55.205Z,12.52
2023-03-06T20:36:27.293Z,11.65
2023-03-06T20:38:55.530Z,13.55
2023-03-06T20:41:26.048Z,12.20
2023-03-06T20:43:54.650Z,12.55
2023-03-06T20:46:23.990Z,12.30
2023-03-06T20:48:53.142Z,12.63
2023-03-06T20:51:22.292Z,13.13
2023-03-06T20:53:53.540Z,12.98
2023-03-06T20:56:23.740Z,13.02
2023-03-06T20:58:51.802Z,11.20
2023-03-06T21:01:21.191Z,14.80
2023-03-06T21:03:49.275Z,12.82
2023-03-06T21:06:17.629Z,12.63
2023-03-06T21:08:45.662Z,14.35
2023-03-06T21:11:14.937Z,12.65
2023-03-06T21:13:43.125Z,12.95
2023-03-06T21:16:12.913Z,13.77
2023-03-06T21:18:41.047Z,12.15
2023-03-06T21:21:10.171Z,13.75
2023-03-06T21:23:38.584Z,13.55
2023-03-06T21:26:07.119Z,13.23
2023-03-06T21:28:36.412Z,13.48
2023-03-06T21:31:07.770Z,11.57
2023-03-06T21:33:35.763Z,13.88
2023-03-06T21:36:04.449Z,12.93
2023-03-06T21:38:32.451Z,13.05
2023-03-06T21:41:07.963Z,13.13
2023-03-06T21:43:37.208Z,12.75
2023-03-06T21:46:05.326Z,13.40
2023-03-06T21:48:33.345Z,12.13
2023-03-06T21:51:12.118Z,12.75
2023-03-06T21:53:42.700Z,12.10
2023-03-06T21:56:11.514Z,12.95
2023-03-06T21:58:41.034Z,13.82
2023-03-06T22:01:13.175Z,12.57
2023-03-06T22:03:41.420Z,13.07
2023-03-06T22:06:11.309Z,12.55
2023-03-06T22:08:39.583Z,14.23
2023-03-06T22:11:08.760Z,14.27
2023-03-06T22:13:36.868Z,14.80
2023-03-06T22:16:07.195Z,13.52
2023-03-06T22:18:36.101Z,12.80
2023-03-06T22:21:08.313Z,13.85
2023-03-06T22:23:36.217Z,14.80
2023-03-06T22:26:05.154Z,13.02
2023-03-06T22:28:33.515Z,13.85
2023-03-06T22:31:07.356Z,12.70
2023-03-06T22:36:06.277Z,14.30
2023-03-06T22:38:34.747Z,14.68
2023-03-06T22:41:02.761Z,12.35
2023-03-06T22:43:30.863Z,14.75
2023-03-06T22:46:01.987Z,12.23
2023-03-06T22:48:31.401Z,15.38
2023-03-06T22:51:03.614Z,14.13
2023-03-06T22:53:32.932Z,13.75
2023-03-06T22:56:01.723Z,13.75
2023-03-06T22:58:34.374Z,14.20
2023-03-06T23:01:06.472Z,13.45
2023-03-06T23:03:36.247Z,13.55
2023-03-06T23:06:07.192Z,15.77
2023-03-06T23:08:35.110Z,12.95
2023-03-06T23:11:03.396Z,14.18
2023-03-06T23:13:31.302Z,15.10
2023-03-06T23:16:03.642Z,14.82
2023-03-06T23:18:31.695Z,13.80
2023-03-06T23:21:01.042Z,13.52
2023-03-06T23:23:28.947Z,14.75
2023-03-06T23:26:00.250Z,14.18
2023-03-06T23:28:28.872Z,12.57
2023-03-06T23:30:56.822Z,12.63
2023-03-06T23:33:24.801Z,13.77
2023-03-06T23:35:52.788Z,15.63
2023-03-06T23:38:22.051Z,12.60
2023-03-06T23:40:50.148Z,16.52
2023-03-06T23:43:18.040Z,15.35
2023-03-06T23:45:54.944Z,14.10
2023-03-06T23:48:22.877Z,13.73
2023-03-06T23:50:51.254Z,13.27
2023-03-06T23:53:19.174Z,14.68
2023-03-06T23:55:50.246Z,14.77
2023-03-06T23:58:19.994Z,13.40
